Time;durP1;ratioP1;P1;durP2;ratioP2;P2;SDS_P1;SDS_P2;PMS_P1;PMS_P2;Temp;Humidity;BMP_temperature;BMP_pressure;BME280_temperature;BME280_humidity;BME280_pressure;Samples;Min_cycle;Max_cycle;Signal;HPM_P1;HPM_P2
2020/12/09 00:01:43;;;;;;;9.20;4.70;;;128.60;1843.20;;;;;;5055914;28;20553;-70
2020/12/09 00:04:11;;;;;;;7.32;4.35;;;128.60;1843.20;;;;;;5056597;28;20021;-70
2020/12/09 00:06:38;;;;;;;7.35;4.10;;;128.60;1843.20;;;;;;5055949;28;20029;-70
2020/12/09 00:09:17;;;;;;;7.70;4.63;;;128.60;1843.20;;;;;;5055316;28;20463;-70
2020/12/09 00:11:43;;;;;;;7.75;4.30;;;128.60;1843.20;;;;;;5055751;28;20167;-70
2020/12/09 00:14:09;;;;;;;6.82;4.30;;;128.60;1843.20;;;;;;5055817;28;20423;-71
2020/12/09 00:16:35;;;;;;;6.18;4.40;;;128.60;1843.20;;;;;;5055293;28;20025;-70
2020/12/09 00:19:04;;;;;;;6.00;3.90;;;128.50;1843.20;;;;;;5052445;28;20497;-73
2020/12/09 00:21:34;;;;;;;6.68;3.90;;;128.50;1843.20;;;;;;5034590;28;20053;-72
2020/12/09 00:24:00;;;;;;;6.03;3.90;;;128.60;1843.20;;;;;;5035496;28;20022;-72
2020/12/09 00:26:27;;;;;;;8.43;4.63;;;128.60;1843.20;;;;;;5035234;28;20448;-72
2020/12/09 00:28:55;;;;;;;7.97;4.50;;;128.60;1843.20;;;;;;5035553;28;20048;-72
2020/12/09 00:31:24;;;;;;;6.65;3.92;;;128.60;1843.20;;;;;;5035424;28;20451;-71
2020/12/09 00:33:51;;;;;;;5.82;3.55;;;128.60;1843.20;;;;;;5035427;28;20442;-71
2020/12/09 00:36:19;;;;;;;7.18;3.97;;;128.50;1843.20;;;;;;5034095;28;20025;-72
2020/12/09 00:38:46;;;;;;;4.50;3.17;;;128.60;1843.20;;;;;;5033951;28;20371;-71
2020/12/09 00:41:17;;;;;;;5.13;3.15;;;128.50;1843.20;;;;;;5034247;28;20065;-72
2020/12/09 00:43:43;;;;;;;5.55;3.58;;;128.60;1843.20;;;;;;5035171;28;20096;-73
2020/12/09 00:46:17;;;;;;;4.60;3.33;;;128.50;1843.20;;;;;;5049344;28;20035;-71
2020/12/09 00:48:44;;;;;;;4.75;3.22;;;128.50;1843.20;;;;;;5055387;28;20104;-72
2020/12/09 00:51:18;;;;;;;7.85;4.18;;;128.50;1843.20;;;;;;5054961;28;20090;-73
2020/12/09 00:53:44;;;;;;;5.13;3.80;;;128.50;1843.20;;;;;;5054993;28;20103;-72
2020/12/09 00:56:10;;;;;;;5.05;3.42;;;128.50;1843.20;;;;;;5054954;28;20029;-71
2020/12/09 00:58:36;;;;;;;5.53;3.80;;;128.50;1843.20;;;;;;5054738;28;20416;-71
2020/12/09 01:01:03;;;;;;;6.10;3.45;;;128.60;1843.20;;;;;;5054799;28;20028;-71
2020/12/09 01:03:30;;;;;;;5.50;3.47;;;128.60;1843.20;;;;;;5054383;28;20471;-71
2020/12/09 01:05:57;;;;;;;6.53;3.83;;;128.60;1843.20;;;;;;5054863;28;20021;-71
2020/12/09 01:08:22;;;;;;;6.53;3.88;;;128.50;1843.20;;;;;;5053328;28;20025;-72
2020/12/09 01:10:48;;;;;;;6.70;3.40;;;128.50;1843.20;;;;;;5054440;28;20194;-71
2020/12/09 01:13:15;;;;;;;4.93;3.55;;;128.60;1843.20;;;;;;5054691;28;20114;-71
2020/12/09 01:15:42;;;;;;;4.10;3.13;;;128.60;1843.20;;;;;;5054511;28;20466;-71
2020/12/09 01:18:08;;;;;;;4.30;2.92;;;128.60;1843.20;;;;;;5054567;28;20021;-71
2020/12/09 01:20:34;;;;;;;6.65;3.10;;;128.60;1843.20;;;;;;5053873;28;20048;-71
2020/12/09 01:22:59;;;;;;;4.43;3.17;;;128.50;1843.20;;;;;;5054020;28;20028;-72
2020/12/09 01:25:25;;;;;;;5.38;3.20;;;128.60;1843.20;;;;;;5054487;28;20112;-72
2020/12/09 01:27:51;;;;;;;4.60;2.70;;;128.50;1843.20;;;;;;5053153;28;20564;-74
2020/12/09 01:30:17;;;;;;;4.03;2.50;;;128.50;1843.20;;;;;;5054203;28;20032;-72
2020/12/09 01:32:42;;;;;;;4.03;2.75;;;128.60;1843.20;;;;;;5054562;28;20033;-72
2020/12/09 01:35:08;;;;;;;4.75;2.70;;;128.50;1843.20;;;;;;5054194;28;20029;-72
2020/12/09 01:37:34;;;;;;;3.67;2.50;;;128.60;1843.20;;;;;;5054139;28;20036;-73
2020/12/09 01:40:00;;;;;;;4.05;2.63;;;128.50;1843.20;;;;;;5053685;28;20037;-71
2020/12/09 01:42:26;;;;;;;4.38;2.92;;;128.60;1843.20;;;;;;5054167;28;20029;-72
2020/12/09 01:44:51;;;;;;;6.82;3.30;;;128.60;1843.20;;;;;;5054030;28;20051;-74
2020/12/09 01:47:18;;;;;;;3.75;2.60;;;128.60;1843.20;;;;;;5054224;28;20025;-73
2020/12/09 01:49:44;;;;;;;2.90;2.42;;;128.60;1843.20;;;;;;5053926;28;20029;-72
2020/12/09 01:52:10;;;;;;;3.28;2.42;;;128.60;1843.20;;;;;;5053736;28;20509;-73
2020/12/09 01:54:35;;;;;;;3.95;2.75;;;128.60;1843.20;;;;;;5086452;28;20110;-73
2020/12/09 01:57:03;;;;;;;4.97;2.72;;;128.70;1843.20;;;;;;5053760;28;20033;-72
2020/12/09 01:59:28;;;;;;;3.95;3.10;;;128.60;1843.20;;;;;;5053907;28;20032;-71
2020/12/09 02:01:54;;;;;;;5.13;3.08;;;128.60;1843.20;;;;;;5052139;28;20386;-71
2020/12/09 02:04:20;;;;;;;5.40;2.72;;;128.60;1843.20;;;;;;5054136;28;20036;-71
2020/12/09 02:06:48;;;;;;;5.68;2.80;;;128.50;1843.20;;;;;;5052615;28;20036;-70
2020/12/09 02:09:14;;;;;;;4.00;2.83;;;128.60;1843.20;;;;;;5052113;28;20029;-71
2020/12/09 02:11:40;;;;;;;4.43;3.20;;;128.50;1843.20;;;;;;5053595;28;20051;-73
2020/12/09 02:14:05;;;;;;;3.85;2.97;;;128.50;1843.20;;;;;;5053588;28;20459;-73
2020/12/09 02:16:31;;;;;;;5.10;3.10;;;128.50;1843.20;;;;;;5053807;28;20025;-74
2020/12/09 02:18:57;;;;;;;4.55;3.28;;;128.50;1843.20;;;;;;5053625;28;20136;-74
2020/12/09 02:21:22;;;;;;;4.10;2.97;;;128.50;1843.20;;;;;;5052349;28;20033;-73
2020/12/09 02:23:48;;;;;;;5.13;3.22;;;128.50;1843.20;;;;;;5053470;28;20486;-73
2020/12/09 02:26:14;;;;;;;5.82;3.75;;;128.50;1843.20;;;;;;5052234;28;20059;-73
2020/12/09 02:28:39;;;;;;;6.57;3.50;;;128.50;1843.20;;;;;;5053565;28;20033;-72
2020/12/09 02:31:05;;;;;;;6.03;3.60;;;128.50;1843.20;;;;;;5052230;28;20052;-73
2020/12/09 02:33:31;;;;;;;4.38;3.30;;;128.50;1843.20;;;;;;5053711;28;20032;-73
2020/12/09 02:35:58;;;;;;;4.82;3.30;;;128.50;1843.20;;;;;;5053440;28;20037;-72
2020/12/09 02:38:23;;;;;;;5.32;3.55;;;128.50;1843.20;;;;;;5053025;28;20417;-72
2020/12/09 02:40:49;;;;;;;6.03;3.25;;;128.50;1843.20;;;;;;5051859;28;20044;-73
2020/12/09 02:43:15;;;;;;;4.63;3.25;;;128.40;1843.20;;;;;;5053155;28;20104;-73
2020/12/09 02:45:40;;;;;;;6.70;3.72;;;128.50;1843.20;;;;;;5052174;28;20033;-73
2020/12/09 02:48:06;;;;;;;4.68;3.63;;;128.50;1843.20;;;;;;5052858;28;20429;-72
2020/12/09 02:50:32;;;;;;;5.28;3.72;;;128.50;1843.20;;;;;;5053271;28;20044;-72
2020/12/09 02:52:57;;;;;;;5.60;3.40;;;128.40;1843.20;;;;;;5055247;28;20033;-72
2020/12/09 02:55:23;;;;;;;4.60;3.25;;;128.40;1843.20;;;;;;5057035;28;20033;-72
2020/12/09 02:57:49;;;;;;;5.18;3.45;;;128.40;1843.20;;;;;;5056733;28;20025;-72
2020/12/09 03:00:15;;;;;;;6.22;3.17;;;128.40;1843.20;;;;;;5057280;28;20447;-70
2020/12/09 03:02:41;;;;;;;5.00;3.58;;;128.40;1843.20;;;;;;5056011;28;20037;-71
2020/12/09 03:05:08;;;;;;;5.78;3.20;;;128.40;1843.20;;;;;;5050971;28;20124;-71
2020/12/09 03:07:34;;;;;;;5.50;3.50;;;128.40;1843.20;;;;;;5042401;28;20045;-72
2020/12/09 03:09:59;;;;;;;7.15;3.25;;;128.40;1843.20;;;;;;5043096;28;20045;-69
2020/12/09 03:12:25;;;;;;;6.05;3.70;;;128.40;1843.20;;;;;;5048154;28;20025;-71
2020/12/09 03:14:51;;;;;;;5.95;4.25;;;128.40;1843.20;;;;;;5056671;28;20523;-74
2020/12/09 03:17:16;;;;;;;5.07;3.67;;;128.40;1843.20;;;;;;5043286;28;20040;-73
2020/12/09 03:19:42;;;;;;;5.85;3.53;;;128.40;1843.20;;;;;;5036963;28;20399;-72
2020/12/09 03:22:08;;;;;;;4.10;3.15;;;128.40;1843.20;;;;;;5056175;28;20025;-72
2020/12/09 03:24:33;;;;;;;4.60;3.80;;;128.40;1843.20;;;;;;5080036;28;20108;-71
2020/12/09 03:26:59;;;;;;;6.80;3.40;;;128.40;1843.20;;;;;;5042429;28;20534;-73
2020/12/09 03:29:25;;;;;;;5.30;3.65;;;128.40;1843.20;;;;;;5038074;28;20037;-73
2020/12/09 03:31:50;;;;;;;5.95;3.78;;;128.40;1843.20;;;;;;5041581;28;20033;-74
2020/12/09 03:34:16;;;;;;;8.77;4.20;;;128.40;1868.80;;;;;;5040238;28;20112;-74
2020/12/09 03:36:42;;;;;;;5.28;3.50;;;128.40;1868.80;;;;;;5051721;28;20021;-73
2020/12/09 03:39:07;;;;;;;7.57;3.55;;;128.30;1868.80;;;;;;5056158;28;20036;-73
2020/12/09 03:41:33;;;;;;;6.45;3.83;;;128.30;1843.20;;;;;;5056180;28;20029;-73
2020/12/09 03:43:59;;;;;;;5.43;3.67;;;128.30;1843.20;;;;;;5053385;28;20068;-73
2020/12/09 03:46:24;;;;;;;5.95;3.78;;;128.30;1868.80;;;;;;5054882;28;20060;-73
2020/12/09 03:48:50;;;;;;;5.60;3.40;;;128.30;1868.80;;;;;;5042977;28;20349;-73
2020/12/09 03:51:16;;;;;;;4.65;3.38;;;128.30;1843.20;;;;;;5034891;28;20034;-73
2020/12/09 03:53:41;;;;;;;5.00;3.55;;;128.30;1843.20;;;;;;5034833;28;20021;-73
2020/12/09 03:56:07;;;;;;;6.22;3.40;;;128.30;1843.20;;;;;;5036012;28;20029;-79
2020/12/09 03:58:33;;;;;;;5.35;3.45;;;128.30;1843.20;;;;;;5046137;28;20022;-70
2020/12/09 04:00:58;;;;;;;6.72;3.22;;;128.30;1843.20;;;;;;5047613;28;20036;-72
2020/12/09 04:03:24;;;;;;;4.72;3.00;;;128.30;1868.80;;;;;;5037130;28;20022;-72
2020/12/09 04:05:50;;;;;;;3.70;2.80;;;128.30;1843.20;;;;;;5036047;28;20037;-73
2020/12/09 04:08:15;;;;;;;5.28;3.25;;;128.30;1843.20;;;;;;5035690;28;20079;-77
2020/12/09 04:10:41;;;;;;;5.43;3.05;;;128.30;1843.20;;;;;;5035532;28;20085;-73
2020/12/09 04:13:07;;;;;;;6.57;3.45;;;128.30;1843.20;;;;;;5036000;28;20455;-72
2020/12/09 04:15:33;;;;;;;4.80;2.97;;;128.30;1843.20;;;;;;5035925;28;20025;-72
2020/12/09 04:17:58;;;;;;;5.90;3.60;;;128.20;1843.20;;;;;;5035832;28;20418;-72
2020/12/09 04:20:24;;;;;;;4.60;3.15;;;128.20;1843.20;;;;;;5035715;28;20434;-72
2020/12/09 04:22:50;;;;;;;4.65;3.03;;;128.20;1868.80;;;;;;5035662;28;20092;-77
2020/12/09 04:25:15;;;;;;;4.93;2.80;;;128.20;1868.80;;;;;;5051816;28;20036;-74
2020/12/09 04:27:41;;;;;;;7.07;3.70;;;128.20;1868.80;;;;;;5055311;28;20082;-73
2020/12/09 04:30:07;;;;;;;5.40;3.63;;;128.20;1843.20;;;;;;5051613;28;20112;-72
2020/12/09 04:32:32;;;;;;;5.80;3.55;;;128.20;1843.20;;;;;;5034303;28;20041;-72
2020/12/09 04:34:59;;;;;;;6.95;3.78;;;128.20;1868.80;;;;;;5044709;28;20116;-73
2020/12/09 04:37:30;;;;;;;5.65;3.55;;;128.20;1868.80;;;;;;5055371;28;20052;-73
2020/12/09 04:39:57;;;;;;;8.25;3.70;;;128.20;1843.20;;;;;;5055630;28;20053;-76
2020/12/09 04:42:24;;;;;;;6.22;3.63;;;128.20;1843.20;;;;;;5055251;28;20119;-72
2020/12/09 04:44:51;;;;;;;6.22;3.63;;;128.20;1843.20;;;;;;5055009;28;20029;-72
2020/12/09 04:47:45;;;;;;;6.35;3.50;;;128.20;1843.20;;;;;;5055601;28;20029;-72
2020/12/09 04:50:13;;;;;;;4.60;3.50;;;128.20;1868.80;;;;;;5051613;28;20445;-72
2020/12/09 04:52:44;;;;;;;4.68;3.50;;;128.20;1868.80;;;;;;5055055;28;20025;-72
2020/12/09 04:55:15;;;;;;;7.57;4.07;;;128.20;1868.80;;;;;;5054827;28;20501;-72
2020/12/09 04:58:02;;;;;;;6.63;3.42;;;128.10;1868.80;;;;;;5054816;28;20074;-72
2020/12/09 05:00:30;;;;;;;4.30;3.35;;;128.20;1843.20;;;;;;5054947;28;20029;-71
2020/12/09 05:03:13;;;;;;;5.82;3.65;;;128.10;1843.20;;;;;;5054762;28;20071;-73
2020/12/09 05:05:38;;;;;;;6.28;3.50;;;128.10;1868.80;;;;;;5054889;28;20024;-72
2020/12/09 05:08:11;;;;;;;5.65;3.63;;;128.20;1843.20;;;;;;5054509;28;20111;-71
2020/12/09 05:10:45;;;;;;;6.30;3.95;;;128.10;1868.80;;;;;;5054452;28;20056;-71
2020/12/09 05:13:18;;;;;;;6.43;3.55;;;128.20;1868.80;;;;;;5053461;28;20033;-71
2020/12/09 05:15:45;;;;;;;6.50;4.15;;;128.10;1868.80;;;;;;5053772;28;20040;-73
2020/12/09 05:18:10;;;;;;;7.68;4.50;;;128.10;1868.80;;;;;;5053983;28;20117;-73
2020/12/09 05:20:40;;;;;;;6.72;4.22;;;128.20;1868.80;;;;;;5054255;28;20060;-73
2020/12/09 05:23:09;;;;;;;8.63;4.38;;;128.10;1868.80;;;;;;5053861;28;20031;-71
2020/12/09 05:25:37;;;;;;;7.15;4.13;;;128.20;1843.20;;;;;;5087475;28;20091;-70
2020/12/09 05:28:05;;;;;;;5.28;3.47;;;128.20;1843.20;;;;;;5054367;28;20121;-69
2020/12/09 05:30:45;;;;;;;6.03;3.90;;;128.20;1843.20;;;;;;5054220;28;20425;-69
2020/12/09 05:33:18;;;;;;;7.55;4.20;;;128.20;1868.80;;;;;;5054278;28;20108;-69
2020/12/09 05:35:59;;;;;;;7.00;4.40;;;128.20;1843.20;;;;;;5054190;28;20045;-70
2020/12/09 05:38:24;;;;;;;6.63;4.20;;;128.20;1843.20;;;;;;5051867;28;20035;-70
2020/12/09 05:40:50;;;;;;;6.72;4.63;;;128.20;1843.20;;;;;;5054131;28;20108;-70
2020/12/09 05:43:17;;;;;;;5.57;3.55;;;128.30;1868.80;;;;;;5054216;28;20459;-70
2020/12/09 05:45:43;;;;;;;7.20;3.63;;;128.30;1868.80;;;;;;5053943;28;20025;-72
2020/12/09 05:48:23;;;;;;;12.73;5.43;;;128.20;1868.80;;;;;;5053919;28;20537;-73
2020/12/09 05:50:59;;;;;;;9.38;3.33;;;128.30;1868.80;;;;;;5053887;28;20128;-72
2020/12/09 05:53:25;;;;;;;8.02;3.33;;;128.30;1868.80;;;;;;5053685;28;20025;-73
2020/12/09 05:55:54;;;;;;;3.92;2.83;;;128.40;1868.80;;;;;;5053972;28;20021;-71
2020/12/09 05:58:28;;;;;;;3.83;2.80;;;128.40;1868.80;;;;;;5053928;28;20029;-71
2020/12/09 06:01:12;;;;;;;4.15;3.10;;;128.40;1868.80;;;;;;5052899;28;20033;-71
2020/12/09 06:03:48;;;;;;;3.72;2.92;;;128.40;1868.80;;;;;;5053440;28;20039;-71
2020/12/09 06:06:16;;;;;;;4.07;2.88;;;128.30;1868.80;;;;;;5052320;28;20029;-71
2020/12/09 06:08:44;;;;;;;5.55;3.55;;;128.30;1868.80;;;;;;5053541;28;20025;-71
2020/12/09 06:11:12;;;;;;;9.65;5.15;;;128.40;1868.80;;;;;;5053540;28;20125;-71
2020/12/09 06:13:37;;;;;;;13.55;7.53;;;128.40;1868.80;;;;;;5052099;28;20033;-71
2020/12/09 06:16:05;;;;;;;16.48;7.97;;;128.40;1868.80;;;;;;5052356;28;20056;-72
2020/12/09 06:18:32;;;;;;;14.75;7.72;;;128.40;1868.80;;;;;;5053981;28;20036;-71
2020/12/09 06:20:59;;;;;;;13.38;6.75;;;128.40;1868.80;;;;;;5053307;28;20078;-71
2020/12/09 06:23:27;;;;;;;10.48;5.70;;;128.40;1868.80;;;;;;5053328;28;20029;-71
2020/12/09 06:25:58;;;;;;;8.88;5.97;;;128.50;1868.80;;;;;;5052136;28;20394;-71
2020/12/09 06:28:26;;;;;;;11.00;6.10;;;128.50;1868.80;;;;;;5056139;28;20041;-71
2020/12/09 06:30:55;;;;;;;10.75;5.95;;;128.50;1868.80;;;;;;5057691;28;20064;-71
2020/12/09 06:33:42;;;;;;;11.65;6.50;;;128.50;1868.80;;;;;;5053660;28;20036;-71
2020/12/09 06:36:10;;;;;;;13.68;7.15;;;128.50;1843.20;;;;;;5046933;28;20115;-76
2020/12/09 06:38:36;;;;;;;14.23;7.25;;;128.50;1868.80;;;;;;5017706;28;20156;-73
2020/12/09 06:41:05;;;;;;;12.57;7.38;;;128.60;1868.80;;;;;;5017931;28;20101;-72
2020/12/09 06:43:32;;;;;;;14.88;8.60;;;128.60;1843.20;;;;;;5051190;28;20039;-72
2020/12/09 06:45:57;;;;;;;17.70;10.80;;;128.60;1843.20;;;;;;5057107;28;20033;-72
2020/12/09 06:48:24;;;;;;;20.52;12.32;;;128.70;1843.20;;;;;;5057249;28;20104;-72
2020/12/09 06:50:51;;;;;;;18.73;11.52;;;128.70;1843.20;;;;;;5057052;28;20044;-72
2020/12/09 06:53:21;;;;;;;15.82;8.93;;;128.70;1843.20;;;;;;5078531;28;20029;-72
2020/12/09 06:55:51;;;;;;;15.02;7.60;;;128.70;1843.20;;;;;;5037336;28;20033;-72
2020/12/09 06:58:30;;;;;;;11.07;6.97;;;128.80;1843.20;;;;;;5037247;28;20022;-72
2020/12/09 07:00:59;;;;;;;9.98;6.05;;;128.80;1843.20;;;;;;5040214;28;20126;-71
2020/12/09 07:03:27;;;;;;;8.48;4.68;;;128.90;1843.20;;;;;;5035774;28;20375;-72
2020/12/09 07:05:53;;;;;;;12.20;5.93;;;128.90;1843.20;;;;;;5037094;28;20113;-72
2020/12/09 07:08:19;;;;;;;8.65;5.20;;;153.60;1843.20;;;;;;5050051;28;20025;-73
2020/12/09 07:10:45;;;;;;;9.48;5.40;;;153.60;1843.20;;;;;;5053100;28;20072;-75
2020/12/09 07:13:13;;;;;;;8.95;5.15;;;153.70;1843.20;;;;;;5043898;28;20040;-72
2020/12/09 07:15:47;;;;;;;13.48;6.30;;;153.80;1843.20;;;;;;5043353;28;20037;-73
2020/12/09 07:18:13;;;;;;;9.70;6.68;;;153.80;1843.20;;;;;;5040907;28;20052;-73
2020/12/09 07:20:40;;;;;;;13.18;7.75;;;153.90;1843.20;;;;;;5026834;28;20033;-71
2020/12/09 07:23:06;;;;;;;19.73;9.43;;;153.90;1843.20;;;;;;5037994;28;20017;-76
2020/12/09 07:25:36;;;;;;;18.55;8.68;;;153.90;1817.60;;;;;;5036496;28;20501;-71
2020/12/09 07:28:03;;;;;;;9.88;6.53;;;153.90;1817.60;;;;;;5036617;28;20021;-71
2020/12/09 07:30:29;;;;;;;14.30;7.72;;;153.90;1817.60;;;;;;5036458;28;20026;-72
2020/12/09 07:32:55;;;;;;;21.17;9.80;;;153.90;1817.60;;;;;;5046778;28;20376;-72
2020/12/09 07:35:22;;;;;;;24.00;12.00;;;154.00;1817.60;;;;;;5036684;28;20037;-71
2020/12/09 07:37:52;;;;;;;30.58;14.07;;;154.00;1817.60;;;;;;5035681;28;20025;-71
2020/12/09 07:40:33;;;;;;;40.38;15.55;;;154.00;1817.60;;;;;;5036601;28;20443;-71
2020/12/09 07:43:09;;;;;;;29.02;13.23;;;154.00;1817.60;;;;;;5035137;28;20025;-71
2020/12/09 07:45:41;;;;;;;23.50;11.23;;;154.00;1817.60;;;;;;5035107;28;20042;-71
2020/12/09 07:48:15;;;;;;;19.80;11.23;;;154.00;1817.60;;;;;;5068724;28;20410;-71
2020/12/09 07:50:47;;;;;;;15.70;9.68;;;154.10;1817.60;;;;;;5035769;28;20041;-75
2020/12/09 07:53:13;;;;;;;16.13;8.10;;;154.00;1817.60;;;;;;5036093;28;20029;-72
2020/12/09 07:55:39;;;;;;;14.18;7.82;;;154.00;1817.60;;;;;;5036026;28;20038;-71
2020/12/09 07:58:07;;;;;;;13.82;7.88;;;154.00;1817.60;;;;;;5037051;28;20494;-71
2020/12/09 08:00:35;;;;;;;11.23;6.70;;;154.10;1817.60;;;;;;5036085;28;20029;-72
2020/12/09 08:03:01;;;;;;;13.30;7.70;;;154.10;1817.60;;;;;;5043427;28;20044;-71
2020/12/09 08:05:32;;;;;;;19.70;9.80;;;154.00;1817.60;;;;;;5035674;28;20029;-71
2020/12/09 08:08:00;;;;;;;15.32;9.52;;;154.10;1817.60;;;;;;5035887;28;20033;-72
2020/12/09 08:10:31;;;;;;;15.85;9.48;;;154.00;1817.60;;;;;;5035396;28;20380;-72
2020/12/09 08:13:10;;;;;;;12.10;7.32;;;154.10;1817.60;;;;;;5044908;28;20459;-77
2020/12/09 08:15:41;;;;;;;12.05;7.20;;;154.10;1817.60;;;;;;5055749;28;20027;-72
2020/12/09 08:18:07;;;;;;;10.82;7.28;;;154.10;1817.60;;;;;;5055374;28;20032;-72
2020/12/09 08:20:50;;;;;;;20.50;10.07;;;154.10;1792.00;;;;;;5055530;28;20059;-76
2020/12/09 08:23:16;;;;;;;16.70;11.95;;;154.20;1792.00;;;;;;5053341;28;20427;-71
2020/12/09 08:25:51;;;;;;;18.83;11.00;;;154.20;1792.00;;;;;;5055598;28;20033;-71
2020/12/09 08:28:35;;;;;;;13.80;9.07;;;154.30;1792.00;;;;;;5055418;28;20033;-70
2020/12/09 08:31:16;;;;;;;16.30;8.90;;;154.30;1792.00;;;;;;5048604;28;20468;-70
2020/12/09 08:33:42;;;;;;;16.80;9.65;;;154.30;1792.00;;;;;;5034125;28;20022;-70
2020/12/09 08:36:09;;;;;;;23.23;8.98;;;154.40;1792.00;;;;;;5035432;28;20076;-71
2020/12/09 08:38:37;;;;;;;18.42;9.00;;;154.50;1792.00;;;;;;5035210;28;20026;-71
2020/12/09 08:41:05;;;;;;;17.90;9.98;;;179.20;1766.40;;;;;;5035257;28;20032;-71
2020/12/09 08:43:34;;;;;;;15.32;8.18;;;179.30;1766.40;;;;;;5051156;28;20093;-71
2020/12/09 08:46:02;;;;;;;11.27;7.07;;;179.40;1766.40;;;;;;5055083;28;20021;-78
2020/12/09 08:48:28;;;;;;;19.67;7.47;;;179.50;1766.40;;;;;;5055158;28;20374;-71
2020/12/09 08:50:53;;;;;;;9.88;6.05;;;179.60;1766.40;;;;;;5053818;28;20135;-71
2020/12/09 08:53:20;;;;;;;10.50;6.40;;;179.70;1740.80;;;;;;5053645;28;20155;-71
2020/12/09 08:55:49;;;;;;;8.98;5.78;;;179.80;1740.80;;;;;;5055148;28;20386;-71
2020/12/09 08:58:16;;;;;;;13.85;6.45;;;179.80;1740.80;;;;;;5053737;28;20029;-71
2020/12/09 09:00:42;;;;;;;20.00;6.75;;;179.80;1715.20;;;;;;5054697;28;20108;-71
2020/12/09 09:03:12;;;;;;;12.15;6.10;;;180.00;1715.20;;;;;;5054709;28;20060;-71
2020/12/09 09:05:42;;;;;;;11.07;5.10;;;180.10;1715.20;;;;;;5054893;28;20513;-72
2020/12/09 09:08:14;;;;;;;5.20;4.07;;;180.10;1715.20;;;;;;5044801;28;20029;-72
2020/12/09 09:10:41;;;;;;;8.48;4.03;;;204.80;1689.60;;;;;;5029687;28;20380;-75
2020/12/09 09:13:08;;;;;;;7.80;4.18;;;205.00;1689.60;;;;;;5039033;28;20553;-71
2020/12/09 09:15:35;;;;;;;7.95;4.95;;;205.10;1664.00;;;;;;5044106;28;20050;-70
2020/12/09 09:18:05;;;;;;;7.50;4.40;;;205.20;1638.40;;;;;;5040181;28;20035;-73
2020/12/09 09:20:32;;;;;;;5.72;3.50;;;205.30;1638.40;;;;;;5044021;28;20041;-70
2020/12/09 09:22:58;;;;;;;7.20;4.05;;;205.40;1638.40;;;;;;5039668;28;20053;-72
2020/12/09 09:25:24;;;;;;;7.65;3.67;;;205.40;1612.80;;;;;;5036192;28;20480;-71
2020/12/09 09:27:51;;;;;;;7.55;4.93;;;205.50;1638.40;;;;;;5041342;28;20079;-71
2020/12/09 09:30:18;;;;;;;13.82;4.50;;;205.50;1612.80;;;;;;5030458;28;20128;-72
2020/12/09 09:32:44;;;;;;;6.60;3.65;;;205.50;1587.20;;;;;;5022223;28;20014;-72
2020/12/09 09:35:19;;;;;;;6.10;3.72;;;205.50;1587.20;;;;;;5025554;28;20037;-72
2020/12/09 09:37:45;;;;;;;8.32;4.63;;;205.40;1587.20;;;;;;5045701;28;20409;-71
2020/12/09 09:40:12;;;;;;;14.85;4.88;;;205.50;1587.20;;;;;;5032873;28;20026;-71
2020/12/09 09:42:39;;;;;;;11.45;5.90;;;205.50;1587.20;;;;;;5040508;28;20059;-71
2020/12/09 09:45:07;;;;;;;20.27;8.50;;;205.60;1587.20;;;;;;5040440;28;20017;-70
2020/12/09 09:47:34;;;;;;;22.52;10.27;;;205.70;1587.20;;;;;;5044710;28;20032;-71
2020/12/09 09:49:59;;;;;;;27.92;10.40;;;205.70;1587.20;;;;;;5048397;28;20043;-72
2020/12/09 09:52:25;;;;;;;16.75;7.38;;;230.40;1561.60;;;;;;5040940;28;20478;-75
2020/12/09 09:54:51;;;;;;;11.05;5.53;;;230.50;1561.60;;;;;;5040536;28;20052;-78
2020/12/09 09:57:16;;;;;;;9.70;3.90;;;230.50;1561.60;;;;;;5053902;28;20471;-71
2020/12/09 09:59:42;;;;;;;5.78;3.40;;;230.50;1561.60;;;;;;5045831;28;20043;-71
2020/12/09 10:02:08;;;;;;;9.18;4.72;;;230.50;1561.60;;;;;;5036088;28;20116;-71
2020/12/09 10:04:33;;;;;;;12.02;4.30;;;230.50;1561.60;;;;;;5039957;28;20041;-71
2020/12/09 10:06:59;;;;;;;7.93;3.78;;;230.50;1561.60;;;;;;5042965;28;20029;-71
2020/12/09 10:09:25;;;;;;;4.28;3.22;;;230.60;1561.60;;;;;;5038138;28;20087;-71
2020/12/09 10:11:52;;;;;;;7.22;3.58;;;230.50;1561.60;;;;;;5037594;28;20387;-77
2020/12/09 10:14:17;;;;;;;5.70;3.33;;;230.50;1536.00;;;;;;5045135;28;20036;-72
2020/12/09 10:16:45;;;;;;;5.78;2.63;;;230.60;1561.60;;;;;;5043975;28;20120;-72
2020/12/09 10:19:11;;;;;;;6.40;3.08;;;230.50;1561.60;;;;;;5033738;28;20379;-78
2020/12/09 10:21:37;;;;;;;4.40;3.08;;;230.50;1561.60;;;;;;5035810;28;20026;-71
2020/12/09 10:24:04;;;;;;;6.18;3.28;;;230.50;1561.60;;;;;;5040171;28;20024;-71
2020/12/09 10:26:39;;;;;;;6.97;4.15;;;230.50;1561.60;;;;;;5041542;28;20123;-71
2020/12/09 10:29:08;;;;;;;5.18;3.50;;;230.50;1561.60;;;;;;5041883;28;20491;-70
2020/12/09 10:31:38;;;;;;;6.70;4.13;;;230.50;1561.60;;;;;;5029168;28;20092;-70
2020/12/09 10:34:08;;;;;;;10.70;5.15;;;230.50;1561.60;;;;;;5027754;28;20419;-71
2020/12/09 10:36:35;;;;;;;7.25;3.97;;;230.50;1561.60;;;;;;5042961;28;20047;-70
2020/12/09 10:39:01;;;;;;;7.75;5.15;;;230.50;1561.60;;;;;;5053230;28;20486;-71
2020/12/09 10:41:27;;;;;;;9.07;5.00;;;230.50;1561.60;;;;;;5053248;28;20112;-71
2020/12/09 10:43:53;;;;;;;9.23;4.97;;;230.60;1587.20;;;;;;5053298;28;20096;-71
2020/12/09 10:46:33;;;;;;;9.80;4.60;;;230.60;1561.60;;;;;;5053571;28;20056;-71
2020/12/09 10:48:59;;;;;;;7.30;4.18;;;230.60;1561.60;;;;;;5086110;28;20560;-71
2020/12/09 10:51:26;;;;;;;8.85;4.50;;;230.60;1561.60;;;;;;5053180;28;20041;-71
2020/12/09 10:53:52;;;;;;;7.53;3.30;;;230.60;1561.60;;;;;;5051731;28;20047;-71
2020/12/09 10:56:44;;;;;;;5.38;3.17;;;230.60;1561.60;;;;;;5053446;28;20036;-72
2020/12/09 10:59:10;;;;;;;5.47;3.50;;;230.60;1561.60;;;;;;5052232;28;20052;-70
2020/12/09 11:01:36;;;;;;;7.68;4.22;;;230.60;1561.60;;;;;;5053305;28;20120;-70
2020/12/09 11:04:03;;;;;;;4.93;3.65;;;230.70;1561.60;;;;;;5053089;28;20469;-70
2020/12/09 11:06:31;;;;;;;7.97;5.10;;;230.60;1561.60;;;;;;5051412;28;20041;-71
2020/12/09 11:08:57;;;;;;;6.28;4.10;;;230.70;1561.60;;;;;;5053001;28;20095;-72
2020/12/09 11:11:27;;;;;;;5.80;3.50;;;230.70;1561.60;;;;;;5051330;28;20075;-72
2020/12/09 11:13:53;;;;;;;9.65;3.53;;;230.70;1561.60;;;;;;5054949;28;20104;-71
2020/12/09 11:16:21;;;;;;;5.13;3.08;;;230.80;1561.60;;;;;;5056874;28;20021;-72
2020/12/09 11:18:48;;;;;;;4.50;2.58;;;230.90;1561.60;;;;;;5056886;28;20032;-72
2020/12/09 11:21:18;;;;;;;7.75;3.65;;;231.00;1536.00;;;;;;5056848;28;20033;-72
2020/12/09 11:23:45;;;;;;;6.68;3.10;;;231.10;1536.00;;;;;;5056545;28;20497;-71
2020/12/09 11:26:11;;;;;;;7.38;3.85;;;231.30;1510.40;;;;;;5056116;28;20037;-72
2020/12/09 11:28:36;;;;;;;4.57;2.78;;;256.00;1484.80;;;;;;5056588;28;20035;-71
2020/12/09 11:31:03;;;;;;;3.65;2.60;;;256.30;1484.80;;;;;;5056629;28;20068;-71
2020/12/09 11:33:29;;;;;;;7.07;3.08;;;256.40;1484.80;;;;;;5056637;28;20021;-71
2020/12/09 11:35:57;;;;;;;4.82;2.33;;;256.60;1459.20;;;;;;5056572;28;20024;-71
2020/12/09 11:38:22;;;;;;;10.45;4.47;;;256.60;1433.60;;;;;;5038674;28;20049;-71
2020/12/09 11:40:48;;;;;;;9.27;4.60;;;256.70;1459.20;;;;;;5017142;28;20491;-71
2020/12/09 11:43:15;;;;;;;5.03;2.92;;;256.60;1433.60;;;;;;5015185;28;20037;-73
2020/12/09 11:45:41;;;;;;;12.50;3.53;;;256.40;1433.60;;;;;;5012605;28;20080;-73
2020/12/09 11:48:06;;;;;;;12.38;4.45;;;256.30;1433.60;;;;;;5015618;28;20474;-73
2020/12/09 11:50:32;;;;;;;9.82;6.80;;;256.10;1459.20;;;;;;5015327;28;20638;-72
2020/12/09 11:52:58;;;;;;;9.38;3.60;;;256.00;1459.20;;;;;;5015513;28;20048;-72
2020/12/09 11:55:24;;;;;;;6.30;3.80;;;231.10;1459.20;;;;;;5013898;28;20026;-74
2020/12/09 11:57:50;;;;;;;8.38;4.20;;;231.00;1484.80;;;;;;5015582;28;20030;-71
2020/12/09 12:00:15;;;;;;;13.27;8.65;;;230.90;1484.80;;;;;;5015120;28;20505;-71
2020/12/09 12:02:41;;;;;;;23.70;14.20;;;230.80;1484.80;;;;;;5015348;28;20045;-70
2020/12/09 12:05:08;;;;;;;10.27;6.53;;;230.80;1510.40;;;;;;5014717;28;20533;-72
2020/12/09 12:07:36;;;;;;;11.07;6.00;;;230.80;1510.40;;;;;;5014887;28;20097;-72
2020/12/09 12:10:03;;;;;;;5.75;4.10;;;230.80;1510.40;;;;;;5015139;28;20050;-73
2020/12/09 12:12:30;;;;;;;8.63;4.72;;;230.80;1510.40;;;;;;5014148;28;20033;-72
2020/12/09 12:14:56;;;;;;;5.25;4.05;;;230.70;1536.00;;;;;;5014964;28;20061;-73
2020/12/09 12:17:21;;;;;;;5.30;3.50;;;230.60;1536.00;;;;;;5015121;28;20061;-72